Time;durP1;ratioP1;P1;durP2;ratioP2;P2;SDS_P1;SDS_P2;PMS_P1;PMS_P2;Temp;Humidity;BMP_temperature;BMP_pressure;BME280_temperature;BME280_humidity;BME280_pressure;Samples;Min_cycle;Max_cycle;Signal;HPM_P1;HPM_P2
2022/10/07 00:03:06;;;;;;;3.38;0.80;;;;;;;;;;20587334;28;20051;-63
2022/10/07 00:13:09;;;;;;;2.50;0.98;;;;;;;;;;20587111;28;20547;-63
2022/10/07 00:23:11;;;;;;;3.47;0.80;;;;;;;;;;20586019;28;20062;-62
2022/10/07 00:33:12;;;;;;;1.98;0.60;;;;;;;;;;20586131;28;20139;-64
2022/10/07 00:43:30;;;;;;;3.25;1.17;;;;;;;;;;20600235;28;20058;-62
2022/10/07 00:53:33;;;;;;;2.27;1.07;;;;;;;;;;20585604;28;20566;-61
2022/10/07 01:03:36;;;;;;;2.95;0.90;;;;;;;;;;20586222;28;20047;-61
2022/10/07 01:13:41;;;;;;;4.60;1.08;;;;;;;;;;20587192;28;20133;-61
2022/10/07 01:24:02;;;;;;;3.85;1.20;;;;;;;;;;20598105;28;20077;-65
2022/10/07 01:34:06;;;;;;;3.85;1.30;;;;;;;;;;20597049;28;20058;-62
2022/10/07 01:44:11;;;;;;;5.78;1.33;;;;;;;;;;20596566;28;20085;-61
2022/10/07 01:54:28;;;;;;;6.97;1.55;;;;;;;;;;20595435;28;20058;-63
2022/10/07 02:04:40;;;;;;;7.68;1.50;;;;;;;;;;20594649;28;20055;-62
2022/10/07 02:15:03;;;;;;;2.92;1.38;;;;;;;;;;20595115;28;20137;-62
2022/10/07 02:25:08;;;;;;;3.10;1.50;;;;;;;;;;20593470;28;20047;-60
2022/10/07 02:35:36;;;;;;;6.85;1.77;;;;;;;;;;20592586;28;20542;-62
2022/10/07 02:46:07;;;;;;;3.77;1.30;;;;;;;;;;20591139;28;20050;-60
2022/10/07 02:56:09;;;;;;;5.85;1.50;;;;;;;;;;20582803;28;20059;-61
2022/10/07 03:06:12;;;;;;;11.30;1.95;;;;;;;;;;20581357;28;20078;-60
2022/10/07 03:16:14;;;;;;;7.55;1.88;;;;;;;;;;20580722;28;20051;-61
2022/10/07 03:26:16;;;;;;;6.93;1.70;;;;;;;;;;20582729;28;20070;-60
2022/10/07 03:36:18;;;;;;;3.13;1.35;;;;;;;;;;20588434;28;20503;-60
2022/10/07 03:46:20;;;;;;;4.32;1.70;;;;;;;;;;20586956;28;20086;-60
2022/10/07 03:56:21;;;;;;;6.60;1.85;;;;;;;;;;20586369;28;20086;-61
2022/10/07 04:06:23;;;;;;;6.78;1.63;;;;;;;;;;20587434;28;20058;-61
2022/10/07 04:16:26;;;;;;;2.65;1.45;;;;;;;;;;20585993;28;20046;-62
2022/10/07 04:26:29;;;;;;;6.32;1.70;;;;;;;;;;20586037;28;20134;-62
2022/10/07 04:36:31;;;;;;;5.07;1.35;;;;;;;;;;20599782;28;20507;-61
2022/10/07 04:46:33;;;;;;;4.30;1.73;;;;;;;;;;20585583;28;20495;-61
2022/10/07 04:56:35;;;;;;;7.55;1.73;;;;;;;;;;20600046;28;20086;-63
2022/10/07 05:06:37;;;;;;;5.72;1.58;;;;;;;;;;20599528;28;20047;-61
2022/10/07 05:16:40;;;;;;;4.18;1.50;;;;;;;;;;20598258;28;20051;-63
2022/10/07 05:26:43;;;;;;;8.02;1.98;;;;;;;;;;20597555;28;20053;-62
2022/10/07 05:36:45;;;;;;;3.92;1.60;;;;;;;;;;20597834;28;20101;-64
2022/10/07 05:46:48;;;;;;;9.20;1.73;;;;;;;;;;20596868;28;20416;-63
2022/10/07 05:56:50;;;;;;;4.95;2.17;;;;;;;;;;20595609;28;20137;-63
2022/10/07 06:06:52;;;;;;;7.85;2.20;;;;;;;;;;20609148;28;20089;-62
2022/10/07 06:16:54;;;;;;;8.95;2.05;;;;;;;;;;20593815;28;20059;-65
2022/10/07 06:26:58;;;;;;;6.93;2.10;;;;;;;;;;20593743;28;20078;-62
2022/10/07 06:37:00;;;;;;;8.30;2.08;;;;;;;;;;20593309;28;20050;-62
2022/10/07 06:47:01;;;;;;;4.30;2.10;;;;;;;;;;20591435;28;20069;-63
2022/10/07 06:57:03;;;;;;;11.98;2.85;;;;;;;;;;20591197;28;20102;-63
2022/10/07 07:07:05;;;;;;;11.38;2.70;;;;;;;;;;20591462;28;20050;-63
2022/10/07 07:17:07;;;;;;;6.88;2.42;;;;;;;;;;20589084;28;20054;-64
2022/10/07 07:27:11;;;;;;;9.15;2.92;;;;;;;;;;20588683;28;20411;-63
2022/10/07 07:37:13;;;;;;;18.75;3.42;;;;;;;;;;20588528;28;20539;-63
2022/10/07 07:47:15;;;;;;;8.73;2.85;;;;;;;;;;20587412;28;20121;-64
2022/10/07 07:57:18;;;;;;;13.15;4.40;;;;;;;;;;20588338;28;20101;-63
2022/10/07 08:07:20;;;;;;;15.25;5.68;;;;;;;;;;20587079;28;20066;-64
2022/10/07 08:17:22;;;;;;;14.10;4.90;;;;;;;;;;20588096;28;20050;-62
2022/10/07 08:27:27;;;;;;;9.73;4.63;;;;;;;;;;20597350;28;20133;-63
2022/10/07 08:37:29;;;;;;;17.83;6.20;;;;;;;;;;20601885;28;20480;-61
2022/10/07 08:47:37;;;;;;;10.60;5.10;;;;;;;;;;20600696;28;20054;-62
2022/10/07 08:57:39;;;;;;;;;;;;;;;;;;20600155;28;20055;-62
2022/10/07 09:07:46;;;;;;;10.63;5.85;;;;;;;;;;20599582;28;19926;-61
2022/10/07 09:17:57;;;;;;;11.73;6.07;;;;;;;;;;20599211;28;20082;-61
2022/10/07 09:27:59;;;;;;;19.33;8.65;;;;;;;;;;20614531;28;20051;-64
2022/10/07 09:38:02;;;;;;;12.05;4.93;;;;;;;;;;20596396;28;20050;-61
2022/10/07 09:48:16;;;;;;;8.43;4.82;;;;;;;;;;20596701;28;20484;-64
2022/10/07 09:58:19;;;;;;;10.35;3.25;;;;;;;;;;20595760;28;20047;-61
2022/10/07 10:08:23;;;;;;;8.55;3.13;;;;;;;;;;20594649;28;20054;-66
2022/10/07 10:18:26;;;;;;;11.55;3.63;;;;;;;;;;20610637;28;20484;-62
2022/10/07 10:28:47;;;;;;;12.52;3.83;;;;;;;;;;20593987;28;20055;-62
2022/10/07 10:39:04;;;;;;;10.32;2.30;;;;;;;;;;20594872;28;20108;-62
2022/10/07 10:49:18;;;;;;;7.57;1.87;;;;;;;;;;20591923;28;20117;-62
2022/10/07 10:59:23;;;;;;;10.18;2.72;;;;;;;;;;20590721;28;20086;-66
2022/10/07 11:09:43;;;;;;;7.80;2.00;;;;;;;;;;20605419;28;20115;-66
2022/10/07 11:19:57;;;;;;;4.25;1.40;;;;;;;;;;20589568;28;20046;-63
2022/10/07 11:30:20;;;;;;;7.78;1.83;;;;;;;;;;20588937;28;20058;-60
2022/10/07 11:40:22;;;;;;;4.82;1.30;;;;;;;;;;20588777;28;20054;-62
2022/10/07 11:50:50;;;;;;;4.32;1.40;;;;;;;;;;20587619;28;20054;-66
2022/10/07 12:01:11;;;;;;;8.23;1.90;;;;;;;;;;20586167;28;20061;-61
2022/10/07 12:11:14;;;;;;;6.28;2.00;;;;;;;;;;20586841;28;20050;-67
2022/10/07 12:21:16;;;;;;;3.78;1.60;;;;;;;;;;20587654;28;20134;-68
2022/10/07 12:31:19;;;;;;;9.18;1.80;;;;;;;;;;20587938;28;20062;-66
2022/10/07 12:41:24;;;;;;;6.47;1.67;;;;;;;;;;20586998;28;20491;-64
2022/10/07 12:51:31;;;;;;;4.45;1.48;;;;;;;;;;20585909;28;20062;-67
2022/10/07 13:01:53;;;;;;;4.65;1.33;;;;;;;;;;20585309;28;20058;-63
2022/10/07 13:11:58;;;;;;;2.25;1.48;;;;;;;;;;20606416;28;20078;-63
2022/10/07 13:22:07;;;;;;;4.70;1.95;;;;;;;;;;20599111;28;20051;-62
2022/10/07 13:32:09;;;;;;;6.53;1.75;;;;;;;;;;20598420;28;20503;-65
2022/10/07 13:42:13;;;;;;;6.53;2.38;;;;;;;;;;20596219;28;20086;-67
2022/10/07 13:52:19;;;;;;;6.32;1.88;;;;;;;;;;20596169;28;20097;-62
2022/10/07 14:02:21;;;;;;;7.30;2.45;;;;;;;;;;20596657;28;20404;-62
2022/10/07 14:12:30;;;;;;;6.68;2.80;;;;;;;;;;20594227;28;20082;-67
2022/10/07 14:22:39;;;;;;;10.90;3.05;;;;;;;;;;20593249;28;20049;-67
2022/10/07 14:43:04;;;;;;;7.20;2.08;;;;;;;;;;20591450;28;20054;-60
2022/10/07 14:53:08;;;;;;;6.40;1.80;;;;;;;;;;20592487;28;20061;-62
2022/10/07 15:03:10;;;;;;;8.57;2.05;;;;;;;;;;20591760;28;20422;-67
2022/10/07 15:13:13;;;;;;;8.15;2.08;;;;;;;;;;20590904;28;20050;-67
2022/10/07 15:23:15;;;;;;;10.20;2.00;;;;;;;;;;20589156;28;20054;-62
2022/10/07 15:33:17;;;;;;;11.75;2.45;;;;;;;;;;20588321;28;20054;-66
2022/10/07 15:43:20;;;;;;;10.32;2.42;;;;;;;;;;20586663;28;20090;-62
2022/10/07 15:53:22;;;;;;;7.78;2.20;;;;;;;;;;20586918;28;20050;-62
2022/10/07 16:03:24;;;;;;;9.88;2.67;;;;;;;;;;20587060;28;20101;-61
2022/10/07 16:13:28;;;;;;;10.20;3.47;;;;;;;;;;20589149;28;20437;-61
2022/10/07 16:23:29;;;;;;;12.57;2.15;;;;;;;;;;20586501;28;20055;-61
2022/10/07 16:33:31;;;;;;;13.23;3.22;;;;;;;;;;20585860;28;20061;-62
2022/10/07 16:43:34;;;;;;;12.57;4.20;;;;;;;;;;20587630;28;20134;-65
2022/10/07 16:53:36;;;;;;;10.55;3.20;;;;;;;;;;20600157;28;20051;-66
2022/10/07 17:03:39;;;;;;;9.52;2.35;;;;;;;;;;20614466;28;20570;-66
2022/10/07 17:13:41;;;;;;;10.93;3.17;;;;;;;;;;20598590;28;20062;-62
2022/10/07 17:23:43;;;;;;;13.80;2.58;;;;;;;;;;20597970;28;20107;-61
2022/10/07 17:33:45;;;;;;;9.10;2.15;;;;;;;;;;20597858;28;20086;-61
2022/10/07 17:43:48;;;;;;;15.20;5.28;;;;;;;;;;20595577;28;20101;-61
2022/10/07 17:53:51;;;;;;;13.40;3.97;;;;;;;;;;20595090;28;20492;-63
2022/10/07 18:03:57;;;;;;;15.10;4.30;;;;;;;;;;20596408;28;20141;-62
2022/10/07 18:24:20;;;;;;;15.23;4.20;;;;;;;;;;20593556;28;20043;-62
2022/10/07 18:34:21;;;;;;;11.68;4.38;;;;;;;;;;20592620;28;20051;-63
2022/10/07 18:44:23;;;;;;;19.90;6.13;;;;;;;;;;20592172;28;20058;-62
2022/10/07 18:54:25;;;;;;;16.30;4.97;;;;;;;;;;20593949;28;20472;-66
2022/10/07 19:04:29;;;;;;;19.23;5.72;;;;;;;;;;20590222;28;20126;-61
2022/10/07 19:14:33;;;;;;;20.45;7.13;;;;;;;;;;20589168;28;20055;-62
2022/10/07 19:34:55;;;;;;;24.58;9.45;;;;;;;;;;20587924;28;20057;-65
2022/10/07 19:44:57;;;;;;;19.77;7.47;;;;;;;;;;20587678;28;20417;-62
2022/10/07 19:55:00;;;;;;;17.50;7.00;;;;;;;;;;20587609;28;20085;-63
2022/10/07 20:05:02;;;;;;;20.58;6.30;;;;;;;;;;20587862;28;20051;-65
2022/10/07 20:15:03;;;;;;;17.77;4.70;;;;;;;;;;20586019;28;20194;-65
2022/10/07 20:25:06;;;;;;;16.17;4.45;;;;;;;;;;20598220;28;20063;-62
2022/10/07 20:35:10;;;;;;;13.30;4.20;;;;;;;;;;20601616;28;20142;-64
2022/10/07 20:45:12;;;;;;;12.85;3.30;;;;;;;;;;20599607;28;20089;-66
2022/10/07 20:55:14;;;;;;;13.15;3.47;;;;;;;;;;20600858;28;20129;-65
2022/10/07 21:05:16;;;;;;;10.90;3.17;;;;;;;;;;20600338;28;20053;-65
2022/10/07 21:15:19;;;;;;;11.68;3.25;;;;;;;;;;20599586;28;20495;-65
2022/10/07 21:25:24;;;;;;;12.90;3.40;;;;;;;;;;20612050;28;20525;-64
2022/10/07 21:35:26;;;;;;;11.07;3.58;;;;;;;;;;20595826;28;20057;-63
2022/10/07 21:45:29;;;;;;;17.58;3.80;;;;;;;;;;20597050;28;20082;-62
2022/10/07 21:55:34;;;;;;;18.17;4.45;;;;;;;;;;20596218;28;20443;-61
2022/10/07 22:05:39;;;;;;;15.05;4.25;;;;;;;;;;20595481;28;20514;-62
2022/10/07 22:15:41;;;;;;;13.30;5.40;;;;;;;;;;20594960;28;20416;-63
2022/10/07 22:25:44;;;;;;;15.07;5.65;;;;;;;;;;20593533;28;20046;-63
2022/10/07 22:35:46;;;;;;;12.82;5.20;;;;;;;;;;20594897;28;20073;-62
2022/10/07 22:45:55;;;;;;;19.48;6.93;;;;;;;;;;20591360;28;20058;-62
2022/10/07 22:56:01;;;;;;;44.55;20.88;;;;;;;;;;20592992;28;20113;-63
2022/10/07 23:06:03;;;;;;;19.00;7.60;;;;;;;;;;20591415;28;20495;-62
2022/10/07 23:16:06;;;;;;;16.25;7.80;;;;;;;;;;20604453;28;20109;-65
2022/10/07 23:26:14;;;;;;;13.38;4.90;;;;;;;;;;20589348;28;20483;-63
2022/10/07 23:36:16;;;;;;;17.35;3.63;;;;;;;;;;20588470;28;20050;-64
2022/10/07 23:46:19;;;;;;;13.00;3.17;;;;;;;;;;20587780;28;20051;-65
2022/10/07 23:56:21;;;;;;;10.88;3.20;;;;;;;;;;20587517;28;20050;-63
